Bampton, United Kingdom
Current Conditions -  °F | °C
As of 11:50 PM on Friday 28 Nov 2014 (Local Time) from EGVN Reporting Station
Light Rain Light Rain  
Wind Chill: 50°   Ceiling: 7000
Heat Index: 50°   Visibility: 4mi
Dew Point: 48°   Wind: 10mph
Humidity: 94%   Direction: 40°NE
Pressure: 29.71"   Gusts: NA
Location:  51.73°N, 1.55°W
Report Text: EGVN 282350Z 04009KT 7000 -RA OVC070 10/09 Q1006 NOSIG
Loading
Personal Weather Stations






























Interactive Weather Map New forecast layout! Learn more

10-Day Weather Forecast

Advertisements
Track Severe Weather on mobile